Time;durP1;ratioP1;P1;durP2;ratioP2;P2;SDS_P1;SDS_P2;PMS_P1;PMS_P2;Temp;Humidity;BMP_temperature;BMP_pressure;BME280_temperature;BME280_humidity;BME280_pressure;Samples;Min_cycle;Max_cycle;Signal;HPM_P1;HPM_P2
2022/12/13 00:01:15;;;;;;;28.77;14.38;;;;;;;;;;5061537;28;20029;-82
2022/12/13 00:03:40;;;;;;;30.52;14.82;;;;;;;;;;5061151;28;20050;-83
2022/12/13 00:06:05;;;;;;;26.05;13.60;;;;;;;;;;5060000;28;20521;-83
2022/12/13 00:08:31;;;;;;;22.55;12.00;;;;;;;;;;5054139;28;20033;-83
2022/12/13 00:11:00;;;;;;;23.17;11.57;;;;;;;;;;5048326;28;20037;-82
2022/12/13 00:13:25;;;;;;;23.75;11.95;;;;;;;;;;5060797;28;20044;-83
2022/12/13 00:16:01;;;;;;;21.17;11.05;;;;;;;;;;5056763;28;20044;-83
2022/12/13 00:18:26;;;;;;;21.75;11.60;;;;;;;;;;5050617;28;20653;-83
2022/12/13 00:20:51;;;;;;;25.15;12.77;;;;;;;;;;5055576;28;20117;-82
2022/12/13 00:23:16;;;;;;;26.03;12.53;;;;;;;;;;5048378;28;20047;-82
2022/12/13 00:25:42;;;;;;;23.60;11.15;;;;;;;;;;5067099;28;20029;-82
2022/12/13 00:28:07;;;;;;;24.83;12.47;;;;;;;;;;5052640;28;20029;-82
2022/12/13 00:30:32;;;;;;;22.60;11.32;;;;;;;;;;5060335;28;20282;-82
2022/12/13 00:32:57;;;;;;;23.73;10.93;;;;;;;;;;5060593;28;20559;-82
2022/12/13 00:35:22;;;;;;;23.53;11.17;;;;;;;;;;5052674;28;20089;-82
2022/12/13 00:37:48;;;;;;;20.37;10.47;;;;;;;;;;5056384;28;20498;-82
2022/12/13 00:40:13;;;;;;;21.00;10.07;;;;;;;;;;5050274;28;20295;-83
2022/12/13 00:42:38;;;;;;;22.05;11.23;;;;;;;;;;5049304;28;20300;-83
2022/12/13 00:45:03;;;;;;;19.23;10.00;;;;;;;;;;5059134;28;20402;-83
2022/12/13 00:47:29;;;;;;;19.17;9.85;;;;;;;;;;5053277;28;20279;-83
2022/12/13 00:49:54;;;;;;;18.73;9.83;;;;;;;22.38;100.00;65951.03;5058525;28;20418;-83
2022/12/13 00:52:19;;;;;;;20.48;10.80;;;;;;;;;;5051861;28;20288;-83
2022/12/13 00:54:44;;;;;;;20.73;11.33;;;;;;;;;;5048595;28;20069;-82
2022/12/13 00:57:09;;;;;;;21.60;10.37;;;;;;;;;;5053532;28;20045;-84
2022/12/13 00:59:35;;;;;;;19.20;10.00;;;;;;;;;;5044354;28;20430;-83
2022/12/13 01:02:00;;;;;;;23.40;12.63;;;;;;;;;;5052033;28;20300;-83
2022/12/13 01:04:25;;;;;;;22.97;11.77;;;;;;;;;;5050980;28;20276;-83
2022/12/13 01:06:51;;;;;;;23.40;12.75;;;;;;;;;;5046062;28;20056;-83
2022/12/13 01:09:17;;;;;;;23.73;12.87;;;;;;;;;;5047299;28;20123;-82
2022/12/13 01:11:43;;;;;;;23.00;11.73;;;;;;;;;;5047890;28;20118;-83
2022/12/13 01:14:08;;;;;;;20.90;11.02;;;;;;;;;;5055580;28;20402;-83
2022/12/13 01:16:33;;;;;;;25.37;13.40;;;;;;;;;;5058760;28;20115;-83
2022/12/13 01:18:58;;;;;;;25.63;12.93;;;;;;;;;;5064415;28;20314;-83
2022/12/13 01:21:24;;;;;;;24.23;11.82;;;;;;;;;;5056665;28;20402;-83
2022/12/13 01:23:49;;;;;;;26.60;12.80;;;;;;;;;;5058779;28;20285;-83
2022/12/13 01:26:15;;;;;;;25.47;12.80;;;;;;;;;;5051669;28;20872;-83
2022/12/13 01:28:41;;;;;;;23.38;11.23;;;;;;;;;;5053915;28;20649;-83
2022/12/13 01:31:09;;;;;;;24.65;11.60;;;;;;;;;;5062889;28;20051;-83
2022/12/13 01:33:34;;;;;;;21.55;10.88;;;;;;;;;;5052727;28;20068;-83
2022/12/13 01:36:01;;;;;;;21.50;9.90;;;;;;;;;;5058123;28;20052;-83
2022/12/13 01:38:26;;;;;;;21.88;10.90;;;;;;;;;;5051278;28;20338;-83
2022/12/13 01:40:56;;;;;;;22.10;10.60;;;;;;;;;;5054922;28;20041;-83
2022/12/13 01:43:22;;;;;;;19.73;10.55;;;;;;;;;;5049831;28;20040;-83
2022/12/13 01:45:48;;;;;;;26.17;11.80;;;;;;;;;;5061253;28;20048;-83
2022/12/13 01:48:18;;;;;;;26.93;12.37;;;;;;;;;;5060760;28;20029;-83
2022/12/13 01:50:46;;;;;;;25.33;12.75;;;;;;;;;;5056689;28;20044;-83
2022/12/13 01:53:14;;;;;;;23.33;11.38;;;;;;;;;;5054194;28;20033;-83
2022/12/13 01:55:40;;;;;;;23.13;10.65;;;;;;;;;;5051912;28;20037;-83
2022/12/13 01:58:06;;;;;;;24.08;11.48;;;;;;;;;;5055495;28;20124;-83
2022/12/13 02:00:34;;;;;;;23.50;12.18;;;;;;;;;;5056848;28;20053;-83
2022/12/13 02:02:59;;;;;;;24.35;12.20;;;;;;;;;;5058256;28;20051;-83
2022/12/13 02:05:25;;;;;;;26.08;12.88;;;;;;;;;;5048406;28;20033;-83
2022/12/13 02:07:50;;;;;;;28.13;13.25;;;;;;;-145.28;100.00;87209.31;5053442;28;20523;-83
2022/12/13 02:10:16;;;;;;;24.10;12.32;;;;;;;;;;5046722;28;20037;-83
2022/12/13 02:12:41;;;;;;;23.63;11.80;;;;;;;;;;5048894;28;20159;-83
2022/12/13 02:15:11;;;;;;;24.08;11.80;;;;;;;;;;5051547;28;20045;-83
2022/12/13 02:17:42;;;;;;;25.67;12.88;;;;;;;;;;5053611;28;20461;-83
2022/12/13 02:20:27;;;;;;;24.63;12.38;;;;;;;;;;5055301;28;20128;-83
2022/12/13 02:22:52;;;;;;;25.90;12.10;;;;;;;;;;5080347;28;20029;-83
2022/12/13 02:25:47;;;;;;;25.05;13.60;;;;;;;;;;5060343;28;20040;-83
2022/12/13 02:28:24;;;;;;;26.73;13.02;;;;;;;;;;5022477;28;20041;-83
2022/12/13 02:30:54;;;;;;;24.25;12.70;;;;;;;;;;5070525;28;20115;-83
2022/12/13 02:33:23;;;;;;;24.25;12.48;;;;;;;;;;5058998;28;20342;-83
2022/12/13 02:36:07;;;;;;;24.33;12.68;;;;;;;;;;5053408;28;20040;-83
2022/12/13 02:38:44;;;;;;;26.80;12.88;;;;;;;;;;5055995;28;20037;-83
2022/12/13 02:41:14;;;;;;;28.95;14.23;;;;;;;;;;5055582;28;20033;-83
2022/12/13 02:43:55;;;;;;;26.67;13.80;;;;;;;;;;5051894;28;20037;-83
2022/12/13 02:46:21;;;;;;;24.13;13.00;;;;;;;;;;5051791;28;20106;-83
2022/12/13 02:48:47;;;;;;;23.67;12.70;;;;;;;;;;5055792;28;20036;-83
2022/12/13 02:51:13;;;;;;;23.80;12.82;;;;;;;;;;5061011;28;20053;-83
2022/12/13 02:53:39;;;;;;;25.50;13.00;;;;;;;;;;5048979;28;20568;-83
2022/12/13 02:56:04;;;;;;;28.27;13.98;;;;;;;;;;5053386;28;20049;-83
2022/12/13 02:58:34;;;;;;;23.48;12.27;;;;;;;;;;5055061;28;20075;-83
2022/12/13 03:01:18;;;;;;;22.95;12.15;;;;;;;;;;5057962;28;20048;-83
2022/12/13 03:03:58;;;;;;;23.30;12.30;;;;;;;;;;5055117;28;20082;-83
2022/12/13 03:06:45;;;;;;;24.98;12.68;;;;;;;;;;5052245;28;20124;-83
2022/12/13 03:09:24;;;;;;;22.02;11.05;;;;;;;;;;5053512;28;20072;-83
2022/12/13 03:14:48;;;;;;;25.40;12.63;;;;;;;;;;5050562;28;20127;-83
2022/12/13 03:17:14;;;;;;;27.48;13.38;;;;;;;;;;5052336;28;20051;-83
2022/12/13 03:19:40;;;;;;;24.83;12.77;;;;;;;;;;5059006;28;20045;-84
2022/12/13 03:22:05;;;;;;;29.13;13.53;;;;;;;;;;5062048;28;20495;-83
2022/12/13 03:24:30;;;;;;;27.55;12.68;;;;;;;;;;5053123;28;20268;-84
2022/12/13 03:26:56;;;;;;;25.07;12.30;;;;;;;;;;5059160;28;20029;-83
2022/12/13 03:29:21;;;;;;;25.42;12.98;;;;;;;;;;5052040;28;20041;-84
2022/12/13 03:31:46;;;;;;;23.80;12.13;;;;;;;;;;5053602;28;20091;-84
2022/12/13 03:34:11;;;;;;;28.00;12.85;;;;;;;;;;5059332;28;20483;-83
2022/12/13 03:36:36;;;;;;;23.77;11.70;;;;;;;;;;5052078;28;20029;-84
2022/12/13 03:39:02;;;;;;;23.93;12.10;;;;;;;;;;5060751;28;20131;-83
2022/12/13 03:41:31;;;;;;;27.52;13.52;;;;;;;;;;5054494;28;20288;-83
2022/12/13 03:43:57;;;;;;;24.52;12.98;;;;;;;;;;5064501;28;20078;-84
2022/12/13 03:46:22;;;;;;;27.40;13.60;;;;;;;;;;5051436;28;20068;-84
2022/12/13 03:48:47;;;;;;;25.87;14.37;;;;;;;;;;5052499;28;20089;-84
2022/12/13 03:51:12;;;;;;;27.70;13.57;;;;;;;;;;5054830;28;20291;-84
2022/12/13 03:53:38;;;;;;;23.70;12.30;;;;;;;;;;5052827;28;20037;-84
2022/12/13 03:56:04;;;;;;;20.27;10.97;;;;;;;;;;5051593;28;20034;-84
2022/12/13 03:58:29;;;;;;;26.73;12.57;;;;;;;;;;5051516;28;20757;-83
2022/12/13 04:00:54;;;;;;;24.83;12.02;;;;;;;;;;5048514;28;20035;-83
2022/12/13 04:03:19;;;;;;;28.10;14.07;;;;;;;;;;5045211;28;20452;-83
2022/12/13 04:05:45;;;;;;;27.97;12.67;;;;;;;;;;5048912;28;20325;-83
2022/12/13 04:08:10;;;;;;;26.93;12.67;;;;;;;;;;5044013;28;20072;-83
2022/12/13 04:10:35;;;;;;;26.85;13.75;;;;;;;;;;5057790;28;20040;-83
2022/12/13 04:15:47;;;;;;;25.15;12.10;;;;;;;;;;5049053;28;20047;-83
2022/12/13 04:18:13;;;;;;;21.63;10.65;;;;;;;;;;5049747;28;20410;-83
2022/12/13 04:20:38;;;;;;;23.42;10.70;;;;;;;;;;5052517;28;20040;-84
2022/12/13 04:23:03;;;;;;;18.60;10.07;;;;;;;;;;5051223;28;20029;-83
2022/12/13 04:25:29;;;;;;;21.07;10.93;;;;;;;;;;5055795;28;20044;-83
2022/12/13 04:27:54;;;;;;;19.73;10.17;;;;;;;;;;5054108;28;20678;-84
2022/12/13 04:30:19;;;;;;;20.33;10.03;;;;;;;;;;5043378;28;20140;-84
2022/12/13 04:32:44;;;;;;;22.87;10.77;;;;;;;;;;5049562;28;20033;-84
2022/12/13 04:35:09;;;;;;;24.30;12.43;;;;;;;;;;5053370;28;20108;-84
2022/12/13 04:37:34;;;;;;;23.77;11.83;;;;;;;;;;5049699;28;20033;-84
2022/12/13 04:40:00;;;;;;;23.50;11.97;;;;;;;-145.28;0.00;65941.84;5057529;28;20048;-84
2022/12/13 04:42:25;;;;;;;21.08;10.98;;;;;;;;;;5052096;28;20283;-84
2022/12/13 04:44:50;;;;;;;20.80;10.40;;;;;;;;;;5050213;28;20041;-83
2022/12/13 04:47:15;;;;;;;17.43;9.10;;;;;;;;;;5050498;28;20620;-84
2022/12/13 04:49:41;;;;;;;19.30;9.07;;;;;;;;;;5053741;28;20041;-83
2022/12/13 04:52:06;;;;;;;18.27;9.43;;;;;;;;;;5062926;28;20356;-83
2022/12/13 04:54:31;;;;;;;26.33;11.85;;;;;;;;;;5058108;28;20048;-84
2022/12/13 04:56:57;;;;;;;25.67;11.80;;;;;;;;;;5058282;28;20048;-83
2022/12/13 04:59:22;;;;;;;25.40;11.93;;;;;;;;;;5058972;28;20325;-85
2022/12/13 05:01:47;;;;;;;25.40;12.17;;;;;;;;;;5059364;28;20045;-85
2022/12/13 05:04:12;;;;;;;26.43;14.47;;;;;;;;;;5058746;28;20294;-84
2022/12/13 05:06:37;;;;;;;28.93;14.73;;;;;;;;;;5047800;28;20123;-84
2022/12/13 05:09:03;;;;;;;28.83;14.27;;;;;;;;;;5055280;28;20386;-84
2022/12/13 05:11:28;;;;;;;28.77;14.27;;;;;;;22.38;100.00;120356.19;5053591;28;20481;-84
2022/12/13 05:13:53;;;;;;;25.13;12.20;;;;;;;;;;5050135;28;20048;-84
2022/12/13 05:16:18;;;;;;;26.60;12.97;;;;;;;;;;5055540;28;20041;-84
2022/12/13 05:18:44;;;;;;;29.67;14.13;;;;;;;;;;5048032;28;20040;-84
2022/12/13 05:21:09;;;;;;;33.47;15.90;;;;;;;;;;5061552;28;20045;-84
2022/12/13 05:23:35;;;;;;;30.23;14.70;;;;;;;;;;5052328;28;20045;-84
2022/12/13 05:26:01;;;;;;;26.00;13.02;;;;;;;;;;5063428;28;20037;-84
2022/12/13 05:28:27;;;;;;;26.65;13.57;;;;;;;;;;5056314;28;20028;-84
2022/12/13 05:30:53;;;;;;;26.90;13.45;;;;;;;;;;5053603;28;20682;-83
2022/12/13 05:33:18;;;;;;;30.75;15.20;;;;;;;-145.28;100.00;159763.88;5055931;28;20056;-83
2022/12/13 05:35:44;;;;;;;28.98;14.32;;;;;;;;;;5052177;28;20033;-83
2022/12/13 05:38:09;;;;;;;26.73;12.33;;;;;;;;;;5055548;28;20361;-83
2022/12/13 05:40:34;;;;;;;23.87;12.20;;;;;;;;;;5059705;28;20036;-83
2022/12/13 05:43:00;;;;;;;22.60;11.20;;;;;;;;;;5055188;28;20513;-83
2022/12/13 05:45:25;;;;;;;22.02;11.40;;;;;;;;;;5061203;28;20120;-83
2022/12/13 05:47:50;;;;;;;28.85;13.35;;;;;;;;;;5057179;28;20546;-83
2022/12/13 05:50:16;;;;;;;25.20;11.80;;;;;;;;;;5060214;28;20041;-83
2022/12/13 05:52:42;;;;;;;21.30;11.70;;;;;;;;;;5053208;28;20404;-83
2022/12/13 05:55:07;;;;;;;27.92;13.40;;;;;;;;;;5064161;28;20052;-83
2022/12/13 05:57:33;;;;;;;26.23;12.75;;;;;;;;;;5055739;28;20029;-83
2022/12/13 05:59:58;;;;;;;23.02;11.07;;;;;;;;;;5058328;28;20044;-83
2022/12/13 06:02:23;;;;;;;23.00;12.43;;;;;;;;;;5057985;28;20071;-83
2022/12/13 06:04:48;;;;;;;26.37;13.53;;;;;;;;;;5056532;28;20041;-84
2022/12/13 06:07:14;;;;;;;25.43;12.73;;;;;;;;;;5050880;28;20033;-84
2022/12/13 06:09:39;;;;;;;28.92;14.00;;;;;;;;;;5057418;28;20344;-84
2022/12/13 06:12:04;;;;;;;32.25;15.38;;;;;;;;;;5046300;28;20029;-84
2022/12/13 06:14:29;;;;;;;30.20;14.88;;;;;;;;;;5049311;28;20033;-83
2022/12/13 06:16:55;;;;;;;28.07;13.43;;;;;;;;;;5053070;28;20037;-83
2022/12/13 06:19:20;;;;;;;28.80;14.00;;;;;;;;;;5049707;28;20036;-83
2022/12/13 06:21:46;;;;;;;29.58;14.18;;;;;;;;;;5054262;28;20280;-83
2022/12/13 06:24:12;;;;;;;28.50;13.63;;;;;;;;;;5060077;28;20040;-83
2022/12/13 06:26:37;;;;;;;25.42;12.90;;;;;;;;;;5052497;28;20040;-83
2022/12/13 06:29:02;;;;;;;28.35;13.25;;;;;;;;;;5053063;28;20528;-83
2022/12/13 06:31:33;;;;;;;29.27;14.40;;;;;;;;;;5055144;28;20095;-83
2022/12/13 06:34:03;;;;;;;28.83;13.57;;;;;;;;;;5049438;28;20037;-83
2022/12/13 06:36:28;;;;;;;28.45;13.13;;;;;;;;;;5051387;28;20036;-83
2022/12/13 06:38:53;;;;;;;27.25;13.75;;;;;;;;;;4999414;28;20493;-83
2022/12/13 06:41:18;;;;;;;31.60;14.93;;;;;;;;;;4999359;28;20033;-83
2022/12/13 06:43:44;;;;;;;25.60;13.90;;;;;;;;;;5047960;28;20061;-84
2022/12/13 06:46:09;;;;;;;31.33;14.55;;;;;;;;;;5057105;28;20045;-83
2022/12/13 06:48:35;;;;;;;28.90;15.05;;;;;;;;;;5047033;28;20046;-83
2022/12/13 06:51:01;;;;;;;30.45;14.82;;;;;;;;;;5050606;28;20112;-83
2022/12/13 06:53:27;;;;;;;33.30;14.55;;;;;;;;;;5060490;28;20047;-83
2022/12/13 06:55:52;;;;;;;33.05;15.25;;;;;;;;;;5053606;28;20119;-84
2022/12/13 06:58:18;;;;;;;39.72;18.05;;;;;;;;;;5053869;28;20616;-84
2022/12/13 07:00:43;;;;;;;33.35;16.50;;;;;;;;;;5053873;28;20049;-84
2022/12/13 07:03:10;;;;;;;35.53;16.83;;;;;;;;;;5054353;28;20043;-83
2022/12/13 07:05:37;;;;;;;33.92;16.13;;;;;;;;;;5051886;28;20033;-83
2022/12/13 07:08:02;;;;;;;33.95;15.75;;;;;;;22.71;100.00;87209.31;5052659;28;20056;-83
2022/12/13 07:10:27;;;;;;;34.10;15.73;;;;;;;;;;5050872;28;20041;-84
2022/12/13 07:12:52;;;;;;;32.73;15.13;;;;;;;;;;5046968;28;20041;-83
2022/12/13 07:15:18;;;;;;;27.27;13.35;;;;;;;;;;5053683;28;20041;-83
2022/12/13 07:17:43;;;;;;;31.23;13.77;;;;;;;;;;5053661;28;20025;-83
2022/12/13 07:20:09;;;;;;;33.70;15.43;;;;;;;;;;5060857;28;20112;-84
2022/12/13 07:22:35;;;;;;;30.13;14.35;;;;;;;;;;5058336;28;20040;-83
2022/12/13 07:25:02;;;;;;;34.75;15.95;;;;;;;;;;5048666;28;20041;-85
2022/12/13 07:27:27;;;;;;;41.50;19.15;;;;;;;;;;5048112;28;20124;-85
2022/12/13 07:29:52;;;;;;;39.17;18.37;;;;;;;;;;5052476;28;20076;-85
2022/12/13 07:32:18;;;;;;;44.35;20.45;;;;;;;;;;5049481;28;20296;-85
2022/12/13 07:34:43;;;;;;;48.60;23.37;;;;;;;;;;5047144;28;20034;-86
2022/12/13 07:37:08;;;;;;;48.63;22.50;;;;;;;;;;5050761;28;20102;-87
2022/12/13 07:39:33;;;;;;;41.10;19.70;;;;;;;;;;5056301;28;20495;-86
2022/12/13 07:42:02;;;;;;;37.42;17.80;;;;;;;;;;5050951;28;20036;-86
2022/12/13 07:44:29;;;;;;;35.85;17.38;;;;;;;;;;5041526;28;20052;-85
2022/12/13 07:46:55;;;;;;;40.10;20.30;;;;;;;;;;5052677;28;20041;-87
2022/12/13 07:49:20;;;;;;;47.03;19.98;;;;;;;;;;5054846;28;20485;-85
2022/12/13 07:51:45;;;;;;;45.17;19.77;;;;;;;;;;5051442;28;20044;-85
2022/12/13 07:54:11;;;;;;;46.95;20.90;;;;;;;;;;5048287;28;20302;-85
2022/12/13 07:56:36;;;;;;;41.00;18.77;;;;;;;;;;5048251;28;20037;-86
2022/12/13 07:59:02;;;;;;;43.33;18.35;;;;;;;;;;5049687;28;20034;-86
2022/12/13 08:01:28;;;;;;;41.60;20.02;;;;;;;;;;5024153;28;20038;-86
2022/12/13 08:04:26;;;;;;;;;;;;;;;;;;;;;
2022/12/13 08:07:24;;;;;;;40.38;19.65;;;;;;;;;;5053250;28;20037;-86
2022/12/13 08:10:22;;;;;;;34.78;16.77;;;;;;;;;;5044396;28;20040;-86
2022/12/13 08:16:24;;;;;;;37.15;18.30;;;;;;;;;;5038721;28;20029;-85
2022/12/13 08:18:52;;;;;;;32.80;17.30;;;;;;;;;;4877810;28;20087;-85
2022/12/13 08:21:21;;;;;;;27.27;14.50;;;;;;;;;;4992945;28;20029;-86
2022/12/13 08:23:46;;;;;;;30.23;14.60;;;;;;;;;;5049125;28;20039;-86
2022/12/13 08:29:35;;;;;;;32.63;16.38;;;;;;;;;;5026673;28;20125;-85
2022/12/13 08:32:01;;;;;;;28.05;15.02;;;;;;;;;;5038582;28;20060;-86
2022/12/13 08:38:16;;;;;;;30.95;15.68;;;;;;;22.39;100.00;87209.31;5085327;23;20563;-86
2022/12/13 08:40:50;;;;;;;26.35;14.40;;;;;;;;;;5025038;28;20037;-85
2022/12/13 08:43:16;;;;;;;28.95;16.17;;;;;;;;;;5027310;28;20041;-86
2022/12/13 08:48:09;;;;;;;29.95;15.70;;;;;;;;;;4977067;28;20126;-86
2022/12/13 08:50:35;;;;;;;30.88;15.93;;;;;;;;;;4982185;28;20088;-84
2022/12/13 08:53:00;;;;;;;33.60;16.67;;;;;;;;;;5036172;28;20659;-84
2022/12/13 08:55:25;;;;;;;32.25;16.90;;;;;;;;;;4976241;28;20034;-85
2022/12/13 08:57:51;;;;;;;33.30;16.45;;;;;;;;;;4984591;28;20042;-85
2022/12/13 09:00:17;;;;;;;30.43;16.23;;;;;;;;;;4991554;28;20042;-84
2022/12/13 09:02:42;;;;;;;35.67;17.27;;;;;;;;;;4992004;28;20415;-84
2022/12/13 09:05:08;;;;;;;33.63;17.85;;;;;;;;;;4989742;28;20095;-84
2022/12/13 09:07:39;;;;;;;35.00;18.00;;;;;;;;;;4987217;28;20057;-85
2022/12/13 09:10:08;;;;;;;36.40;18.38;;;;;;;;;;4986712;28;20092;-86
2022/12/13 09:12:40;;;;;;;32.38;17.92;;;;;;;;;;4988711;28;20038;-87
2022/12/13 09:15:06;;;;;;;32.40;17.15;;;;;;;;;;4989155;28;20495;-87
2022/12/13 09:17:32;;;;;;;30.63;16.75;;;;;;;;;;4989633;28;20038;-87
2022/12/13 09:19:57;;;;;;;33.05;17.13;;;;;;;;;;4993295;28;20060;-86
2022/12/13 09:22:22;;;;;;;34.73;19.03;;;;;;;;;;4991883;28;20069;-85
2022/12/13 09:24:48;;;;;;;32.72;17.60;;;;;;;;;;4991337;28;20297;-85
2022/12/13 09:27:13;;;;;;;32.58;16.13;;;;;;;;;;4984979;28;20042;-86
2022/12/13 09:29:38;;;;;;;29.60;16.57;;;;;;;;;;4992941;28;20046;-86
2022/12/13 09:32:04;;;;;;;34.63;18.07;;;;;;;;;;4994097;28;20030;-86
2022/12/13 09:34:29;;;;;;;36.72;19.45;;;;;;;;;;4988446;28;20369;-85
2022/12/13 09:36:55;;;;;;;34.83;18.58;;;;;;;;;;4982406;28;20066;-85
2022/12/13 09:39:20;;;;;;;33.13;17.63;;;;;;;;;;4995408;28;20099;-84
2022/12/13 09:41:48;;;;;;;32.23;17.13;;;;;;;;;;4991800;28;20077;-85
2022/12/13 09:44:25;;;;;;;36.17;18.60;;;;;;;;;;4993296;28;20290;-87
2022/12/13 09:46:51;;;;;;;34.88;18.25;;;;;;;;;;4993274;28;20030;-85
2022/12/13 09:49:29;;;;;;;32.15;17.95;;;;;;;;;;4987903;28;20076;-85
2022/12/13 09:51:56;;;;;;;33.80;16.88;;;;;;;;;;5017013;28;20038;-86
2022/12/13 09:54:41;;;;;;;46.92;23.10;;;;;;;;;;4990964;28;20126;-86
2022/12/13 10:00:22;;;;;;;35.35;18.42;;;;;;;;;;4948570;28;20046;-86
2022/12/13 10:02:56;;;;;;;37.42;20.08;;;;;;;-145.28;100.00;159895.75;4968885;28;20127;-86
2022/12/13 10:05:28;;;;;;;33.13;17.75;;;;;;;;;;5000862;28;20049;-85
2022/12/13 10:07:54;;;;;;;32.58;18.02;;;;;;;;;;4988134;28;20392;-86
2022/12/13 10:10:20;;;;;;;30.38;16.27;;;;;;;;;;4995760;28;20646;-86
2022/12/13 10:12:49;;;;;;;30.55;16.15;;;;;;;;;;4996726;28;20045;-86
2022/12/13 10:15:15;;;;;;;26.00;13.85;;;;;;;;;;4990293;28;20038;-85
2022/12/13 10:17:46;;;;;;;26.38;14.25;;;;;;;;;;4990071;28;20526;-85
2022/12/13 10:20:16;;;;;;;29.33;15.65;;;;;;;;;;4995696;28;20066;-87
2022/12/13 10:22:41;;;;;;;30.52;15.40;;;;;;;;;;4988389;28;20038;-83
2022/12/13 10:25:06;;;;;;;26.43;15.10;;;;;;;;;;5001212;28;20651;-86
2022/12/13 10:27:33;;;;;;;25.90;15.10;;;;;;;;;;4988340;28;20300;-87
2022/12/13 10:30:01;;;;;;;32.00;17.42;;;;;;;;;;4992384;28;20065;-86
2022/12/13 10:32:26;;;;;;;26.02;15.65;;;;;;;;;;4985612;28;20057;-86
2022/12/13 10:34:54;;;;;;;29.10;15.05;;;;;;;;;;4991322;28;20035;-87
2022/12/13 10:37:22;;;;;;;26.30;15.15;;;;;;;;;;4993490;28;20044;-85
2022/12/13 10:39:53;;;;;;;28.05;14.05;;;;;;;;;;4992231;28;20645;-87
2022/12/13 10:43:03;;;;;;;26.77;13.48;;;;;;;;;;4979134;28;20043;-88
2022/12/13 10:45:28;;;;;;;23.77;12.63;;;;;;;;;;4980918;28;20045;-88
2022/12/13 10:47:53;;;;;;;20.53;11.33;;;;;;;;;;4993157;28;20038;-85
2022/12/13 10:50:22;;;;;;;21.90;12.37;;;;;;;;;;4987057;28;20045;-85
2022/12/13 10:52:48;;;;;;;22.10;12.25;;;;;;;;;;4985286;28;20351;-86
2022/12/13 10:55:30;;;;;;;26.13;13.95;;;;;;;;;;4986943;28;20038;-87
2022/12/13 10:57:57;;;;;;;23.45;12.30;;;;;;;;;;4989099;28;20041;-86
2022/12/13 11:00:34;;;;;;;21.45;11.93;;;;;;;;;;4983590;28;20042;-87
2022/12/13 11:02:59;;;;;;;17.50;10.20;;;;;;;;;;5004077;28;20049;-86
2022/12/13 11:05:26;;;;;;;18.67;10.82;;;;;;;;;;4991408;28;20038;-86
2022/12/13 11:07:54;;;;;;;19.73;11.75;;;;;;;;;;4990553;28;20042;-87
2022/12/13 11:10:19;;;;;;;24.05;13.27;;;;;;;;;;5013477;28;20030;-86
2022/12/13 11:12:54;;;;;;;21.85;12.40;;;;;;;;;;4989013;28;20090;-87
2022/12/13 11:15:28;;;;;;;20.88;11.82;;;;;;;;;;4980473;28;20038;-86
2022/12/13 11:17:59;;;;;;;22.20;12.15;;;;;;;;;;4979812;28;20391;-84
2022/12/13 11:20:30;;;;;;;20.20;11.45;;;;;;;;;;4988646;28;20300;-84
2022/12/13 11:23:01;;;;;;;17.73;11.15;;;;;;;;;;4984120;28;20042;-85
2022/12/13 11:25:37;;;;;;;17.67;10.77;;;;;;;;;;4982497;28;20034;-84
2022/12/13 11:28:11;;;;;;;20.25;11.05;;;;;;;;;;4974536;28;20039;-85
2022/12/13 11:30:42;;;;;;;18.48;10.32;;;;;;;;;;4988268;28;20045;-85
2022/12/13 11:33:07;;;;;;;;;;;;;;;;;;4983733;28;20061;-86
2022/12/13 11:35:52;;;;;;;17.98;9.88;;;;;;;;;;4976397;28;19941;-87
2022/12/13 11:38:38;;;;;;;20.15;10.15;;;;;;;;;;4985891;28;20030;-85
2022/12/13 11:41:11;;;;;;;20.42;10.90;;;;;;;;;;4977995;28;20665;-84
2022/12/13 11:43:41;;;;;;;20.48;11.02;;;;;;;;;;4985712;28;20069;-85
2022/12/13 11:46:15;;;;;;;16.30;9.38;;;;;;;;;;4981075;28;20039;-86
2022/12/13 11:48:50;;;;;;;16.98;9.15;;;;;;;;;;4985138;28;20555;-85
2022/12/13 11:51:20;;;;;;;18.48;9.80;;;;;;;;;;4987761;28;20119;-83
2022/12/13 11:54:05;;;;;;;15.57;9.60;;;;;;;;;;4993800;28;20036;-83
2022/12/13 11:56:33;;;;;;;15.43;9.18;;;;;;;;;;4990681;28;20285;-84
2022/12/13 11:58:58;;;;;;;12.27;7.43;;;;;;;;;;4986809;28;20038;-84
2022/12/13 12:01:28;;;;;;;12.85;8.02;;;;;;;;;;4988431;28;20133;-85
2022/12/13 12:03:58;;;;;;;10.13;5.45;;;;;;;;;;4987448;28;20046;-85
2022/12/13 12:06:26;;;;;;;7.40;4.33;;;;;;;;;;4982535;28;20053;-86
2022/12/13 12:08:51;;;;;;;7.47;4.40;;;;;;;;;;5004622;28;20377;-86
2022/12/13 12:11:16;;;;;;;7.07;4.60;;;;;;;;;;5025969;28;20108;-85
2022/12/13 12:13:50;;;;;;;8.05;5.10;;;;;;;;;;4979627;28;20039;-88
2022/12/13 12:16:21;;;;;;;9.85;5.63;;;;;;;;;;4982942;28;20035;-87
2022/12/13 12:18:48;;;;;;;10.30;5.80;;;;;;;;;;4984628;28;20102;-87
2022/12/13 12:21:16;;;;;;;10.88;5.85;;;;;;;;;;5000443;28;20240;-86
2022/12/13 12:23:48;;;;;;;7.63;4.57;;;;;;;;;;4992215;28;20042;-86
2022/12/13 12:26:15;;;;;;;9.45;5.03;;;;;;;;;;4988754;28;20537;-85
2022/12/13 12:29:03;;;;;;;8.40;5.25;;;;;;;;;;4979211;28;20054;-87
2022/12/13 12:31:51;;;;;;;10.25;5.50;;;;;;;;;;4997673;28;20034;-85
2022/12/13 12:34:39;;;;;;;8.70;5.28;;;;;;;;;;4979524;28;20088;-86
2022/12/13 12:37:30;;;;;;;12.95;7.75;;;;;;;;;;4987137;28;20038;-86
2022/12/13 12:40:02;;;;;;;17.65;10.02;;;;;;;;;;4957592;28;20119;-85
2022/12/13 12:42:30;;;;;;;13.88;8.65;;;;;;;;;;4998384;28;20531;-85
2022/12/13 12:45:19;;;;;;;18.92;10.75;;;;;;;;;;5022593;28;20044;-87
2022/12/13 12:48:03;;;;;;;18.02;10.30;;;;;;;;;;4996522;28;20042;-86
2022/12/13 12:50:37;;;;;;;15.75;10.35;;;;;;;;;;4989134;28;20039;-87
2022/12/13 12:53:23;;;;;;;15.15;8.57;;;;;;;;;;4989700;28;20047;-86
2022/12/13 12:56:19;;;;;;;17.20;10.13;;;;;;;;;;4945579;28;20050;-86
2022/12/13 13:04:53;;;;;;;18.90;10.60;;;;;;;;;;4968956;28;20691;-86
2022/12/13 13:07:27;;;;;;;19.67;11.48;;;;;;;;;;5014624;28;20038;-86
2022/12/13 13:10:01;;;;;;;20.65;11.80;;;;;;;;;;4989895;28;20434;-86
2022/12/13 13:19:09;;;;;;;21.77;12.80;;;;;;;;;;4979956;28;20115;-86
2022/12/13 13:21:39;;;;;;;20.83;12.05;;;;;;;;;;4988823;28;20132;-87
2022/12/13 13:24:08;;;;;;;19.70;11.45;;;;;;;;;;5026605;28;20063;-86
2022/12/13 13:26:43;;;;;;;18.42;10.20;;;;;;;;;;4988077;28;20122;-87
2022/12/13 13:29:28;;;;;;;19.48;11.65;;;;;;;;;;4989822;28;20038;-87
2022/12/13 13:32:06;;;;;;;18.05;10.88;;;;;;;;;;4994217;28;20038;-86
2022/12/13 13:34:35;;;;;;;20.80;12.45;;;;;;;;;;4990432;28;20069;-87
2022/12/13 13:37:12;;;;;;;21.45;12.07;;;;;;;;;;4982276;28;20041;-87
2022/12/13 13:39:53;;;;;;;24.67;13.43;;;;;;;;;;4975636;28;20046;-88
2022/12/13 13:42:20;;;;;;;23.13;11.82;;;;;;;;;;4989100;28;20045;-85
2022/12/13 13:44:49;;;;;;;22.58;11.77;;;;;;;;;;4992423;28;20035;-87
2022/12/13 13:47:23;;;;;;;26.92;15.07;;;;;;;;;;4994614;28;20054;-87
2022/12/13 13:49:55;;;;;;;21.60;11.98;;;;;;;;;;4978605;28;20038;-86
2022/12/13 13:52:27;;;;;;;24.70;13.95;;;;;;;;;;4989592;28;20034;-86
2022/12/13 13:55:12;;;;;;;23.70;13.18;;;;;;;;;;5007614;28;20035;-86
2022/12/13 13:57:56;;;;;;;19.63;10.95;;;;;;;;;;4990395;28;20116;-87
2022/12/13 14:00:32;;;;;;;17.38;10.00;;;;;;;;;;4978339;28;20050;-87
2022/12/13 14:02:58;;;;;;;17.58;9.93;;;;;;;;;;4992733;28;20042;-88
2022/12/13 14:05:26;;;;;;;17.97;9.50;;;;;;;;;;5008002;28;20404;-86
2022/12/13 14:07:51;;;;;;;14.23;8.02;;;;;;;;;;4992676;28;20042;-85
2022/12/13 14:10:35;;;;;;;13.10;7.63;;;;;;;;;;4983539;28;20048;-87
2022/12/13 14:13:19;;;;;;;17.55;9.73;;;;;;;;;;4990404;28;20407;-87
2022/12/13 14:16:14;;;;;;;13.70;8.20;;;;;;;;;;4982680;28;20052;-88
2022/12/13 14:18:42;;;;;;;18.02;10.55;;;;;;;;;;4987921;28;20054;-85
2022/12/13 14:21:23;;;;;;;15.68;8.73;;;;;;;;;;4992110;28;20035;-88
2022/12/13 14:23:57;;;;;;;13.73;8.27;;;;;;;;;;4978199;28;20038;-87
2022/12/13 14:26:41;;;;;;;16.27;9.15;;;;;;;;;;4987881;28;20044;-87
2022/12/13 14:29:11;;;;;;;20.45;9.85;;;;;;;;;;5004296;28;20046;-87
2022/12/13 14:31:41;;;;;;;17.70;9.23;;;;;;;;;;4994456;28;20042;-88
2022/12/13 14:34:13;;;;;;;16.50;9.13;;;;;;;;;;4988527;28;20339;-88
2022/12/13 14:36:48;;;;;;;15.60;8.82;;;;;;;;;;4982033;28;20040;-87
2022/12/13 14:39:18;;;;;;;13.00;7.80;;;;;;;;;;4992886;28;20105;-87
2022/12/13 14:41:44;;;;;;;14.20;7.53;;;;;;;;;;4988403;28;20434;-87
2022/12/13 14:44:23;;;;;;;13.55;7.95;;;;;;;;;;4989189;28;20511;-87
2022/12/13 14:46:50;;;;;;;25.58;13.13;;;;;;;;;;4990520;28;20054;-88
2022/12/13 14:49:15;;;;;;;20.25;12.00;;;;;;;;;;4995754;28;20616;-87
2022/12/13 14:51:40;;;;;;;17.73;10.35;;;;;;;;;;5003902;28;20149;-87
2022/12/13 14:54:06;;;;;;;28.15;15.68;;;;;;;;;;4986955;28;20053;-86
2022/12/13 14:56:32;;;;;;;22.10;13.52;;;;;;;;;;5005462;28;20062;-87
2022/12/13 14:58:57;;;;;;;24.13;13.98;;;;;;;;;;4988005;28;20034;-88